Time;durP1;ratioP1;P1;durP2;ratioP2;P2;SDS_P1;SDS_P2;PMS_P1;PMS_P2;Temp;Humidity;BMP_temperature;BMP_pressure;BME280_temperature;BME280_humidity;BME280_pressure;Samples;Min_cycle;Max_cycle;Signal;HPM_P1;HPM_P2
2021/10/02 00:31:43;;;;;;;11.52;7.30;;;;;;;;;;143756;611;46022;-55
2021/10/02 00:34:39;;;;;;;18.83;8.27;;;;;;;;;;143755;639;45020;-55
2021/10/02 00:45:32;;;;;;;14.98;7.47;;;;;;;;;;143756;617;45018;-55
2021/10/02 00:47:59;;;;;;;11.95;7.68;;;;;;;;;;143758;593;45023;-55
2021/10/02 00:50:26;;;;;;;11.63;6.70;;;;;;;;;;143755;793;45912;-54
2021/10/02 00:52:54;;;;;;;9.40;6.57;;;;;;;;;;143758;744;45010;-54
2021/10/02 00:55:21;;;;;;;13.10;7.37;;;;;;;;;;143755;727;45047;-55
2021/10/02 00:57:48;;;;;;;13.32;7.40;;;;;;;;;;143755;574;45920;-54
2021/10/02 01:00:15;;;;;;;12.23;7.82;;;;;;;;;;143752;597;45912;-55
2021/10/02 01:02:57;;;;;;;9.82;7.07;;;;;;;;;;143758;596;45010;-55
2021/10/02 01:06:14;;;;;;;16.00;8.18;;;;;;;;;;143750;655;45018;-54
2021/10/02 01:09:04;;;;;;;15.63;7.47;;;;;;;;;;143754;635;45918;-54
2021/10/02 01:12:15;;;;;;;12.50;6.22;;;;;;;;;;143756;615;45911;-54
2021/10/02 01:14:51;;;;;;;10.40;6.80;;;;;;;;;;143758;767;45010;-54
2021/10/02 01:17:40;;;;;;;14.73;6.60;;;;;;;;;;143754;581;45020;-55
2021/10/02 01:20:16;;;;;;;13.68;7.20;;;;;;;;;;143757;733;45012;-55
2021/10/02 01:23:19;;;;;;;12.25;6.90;;;;;;;;;;143756;599;44910;-55
2021/10/02 01:26:39;;;;;;;11.40;6.57;;;;;;;;;;143756;580;45022;-55
2021/10/02 01:29:09;;;;;;;14.25;6.90;;;;;;;;;;143754;636;45038;-54
2021/10/02 01:31:44;;;;;;;11.25;7.53;;;;;;;;;;143751;602;45918;-54
2021/10/02 01:34:28;;;;;;;13.10;6.72;;;;;;;;;;143750;607;45012;-55
2021/10/02 01:37:24;;;;;;;11.60;6.90;;;;;;;;;;143743;621;46022;-55
2021/10/02 01:48:14;;;;;;;12.65;6.78;;;;;;;;;;143755;617;45024;-55
2021/10/02 01:50:42;;;;;;;11.95;7.22;;;;;;;;;;143753;598;46020;-54
2021/10/02 01:53:11;;;;;;;12.40;7.18;;;;;;;;;;143754;579;45920;-54
2021/10/02 01:55:38;;;;;;;12.07;6.50;;;;;;;;;;143756;579;45012;-54
2021/10/02 01:58:09;;;;;;;13.07;6.90;;;;;;;;;;143757;569;45022;-54
2021/10/02 02:00:45;;;;;;;10.55;6.03;;;;;;;;;;143750;638;45020;-54
2021/10/02 02:03:15;;;;;;;13.43;6.55;;;;;;;;;;143756;641;45023;-54
2021/10/02 02:05:44;;;;;;;10.23;5.55;;;;;;;;;;143757;569;45912;-54
2021/10/02 02:08:19;;;;;;;10.30;5.65;;;;;;;;;;143757;626;45010;-54
2021/10/02 02:10:46;;;;;;;11.60;5.68;;;;;;;;;;143757;565;45020;-54
2021/10/02 02:13:15;;;;;;;10.85;4.95;;;;;;;;;;143756;570;45921;-55
2021/10/02 02:15:44;;;;;;;14.30;5.22;;;;;;;;;;143756;581;45912;-55
2021/10/02 02:18:14;;;;;;;8.82;5.05;;;;;;;;;;143758;719;45025;-54
2021/10/02 02:20:52;;;;;;;12.55;5.75;;;;;;;;;;143757;594;45912;-54
2021/10/02 02:23:20;;;;;;;13.50;5.35;;;;;;;;;;143756;631;45022;-55
2021/10/02 02:25:47;;;;;;;13.50;5.60;;;;;;;;;;143753;638;44912;-55
2021/10/02 02:28:14;;;;;;;9.73;5.28;;;;;;;;;;143757;599;45022;-54
2021/10/02 02:30:42;;;;;;;9.13;5.10;;;;;;;;;;143759;637;45018;-55
2021/10/02 02:33:08;;;;;;;8.30;4.68;;;;;;;;;;143755;635;45920;-55
2021/10/02 02:35:36;;;;;;;12.65;5.55;;;;;;;;;;143756;564;45912;-55
2021/10/02 02:38:02;;;;;;;9.88;5.22;;;;;;;;;;143734;566;46012;-55
2021/10/02 02:40:30;;;;;;;11.90;4.82;;;;;;;;;;143728;570;47018;-55
2021/10/02 02:42:56;;;;;;;9.48;4.68;;;;;;;;;;143730;627;46012;-55
2021/10/02 02:45:24;;;;;;;9.60;5.10;;;;;;;;;;143729;598;45912;-55
2021/10/02 02:48:08;;;;;;;12.77;5.30;;;;;;;;;;143730;574;46023;-55
2021/10/02 02:51:03;;;;;;;9.45;5.05;;;;;;;;;;143730;701;46018;-55
2021/10/02 02:53:51;;;;;;;10.80;5.15;;;;;;;;;;143733;564;46013;-55
2021/10/02 02:56:24;;;;;;;11.18;5.55;;;;;;;;;;143729;621;46012;-55
2021/10/02 02:58:55;;;;;;;10.02;4.97;;;;;;;;;;143735;566;45022;-55
2021/10/02 03:01:25;;;;;;;12.85;5.57;;;;;;;;;;143733;574;46020;-54
2021/10/02 03:03:54;;;;;;;6.90;4.87;;;;;;;;;;143730;602;46022;-55
2021/10/02 03:06:23;;;;;;;8.93;5.03;;;;;;;;;;143731;613;45912;-55
2021/10/02 03:08:55;;;;;;;11.10;5.53;;;;;;;;;;143732;609;45023;-55
2021/10/02 03:11:27;;;;;;;10.07;4.75;;;;;;;;;;143729;673;46018;-55
2021/10/02 03:13:56;;;;;;;11.75;4.93;;;;;;;;;;143731;617;46022;-55
2021/10/02 03:16:28;;;;;;;8.98;5.37;;;;;;;;;;143728;622;46018;-55
2021/10/02 03:19:00;;;;;;;11.32;5.22;;;;;;;;;;143733;750;45023;-55
2021/10/02 03:21:28;;;;;;;12.23;5.05;;;;;;;;;;143729;577;46030;-55
2021/10/02 03:23:56;;;;;;;9.70;5.32;;;;;;;;;;143733;779;46013;-55
2021/10/02 03:26:24;;;;;;;9.80;5.30;;;;;;;;;;143729;618;46012;-55
2021/10/02 03:28:52;;;;;;;9.90;5.05;;;;;;;;;;143731;585;46022;-55
2021/10/02 03:31:20;;;;;;;9.15;4.70;;;;;;;;;;143728;637;46020;-55
2021/10/02 03:33:47;;;;;;;8.00;4.82;;;;;;;;;;143734;714;46022;-55
2021/10/02 03:36:15;;;;;;;10.48;4.95;;;;;;;;;;143731;630;46012;-55
2021/10/02 03:38:42;;;;;;;9.95;5.62;;;;;;;;;;143736;586;46022;-56
2021/10/02 03:41:09;;;;;;;9.98;4.85;;;;;;;;;;143730;573;46014;-55
2021/10/02 03:43:38;;;;;;;11.85;4.97;;;;;;;;;;143731;642;46920;-55
2021/10/02 03:46:05;;;;;;;9.73;4.57;;;;;;;;;;143729;564;45912;-55
2021/10/02 03:48:33;;;;;;;10.38;5.05;;;;;;;;;;143731;577;46023;-55
2021/10/02 03:51:00;;;;;;;10.35;4.90;;;;;;;;;;143727;566;46020;-55
2021/10/02 03:53:28;;;;;;;9.23;4.43;;;;;;;;;;143730;564;46022;-54
2021/10/02 03:55:59;;;;;;;11.35;4.95;;;;;;;;;;143729;587;46012;-55
2021/10/02 03:58:29;;;;;;;12.55;4.80;;;;;;;;;;143731;588;46022;-55
2021/10/02 04:00:56;;;;;;;6.72;4.35;;;;;;;;;;143731;639;46027;-55
2021/10/02 04:03:22;;;;;;;6.78;4.18;;;;;;;;;;143731;623;46012;-54
2021/10/02 04:05:50;;;;;;;7.07;4.10;;;;;;;;;;143729;569;45018;-54
2021/10/02 04:08:17;;;;;;;11.20;4.93;;;;;;;;;;143732;564;46010;-54
2021/10/02 04:10:44;;;;;;;10.73;4.65;;;;;;;;;;143728;602;47018;-54
2021/10/02 04:13:11;;;;;;;10.30;5.65;;;;;;;;;;143731;603;46012;-54
2021/10/02 04:15:38;;;;;;;14.43;5.00;;;;;;;;;;143729;729;45018;-54
2021/10/02 04:18:05;;;;;;;9.73;4.72;;;;;;;;;;143732;633;46023;-55
2021/10/02 04:20:32;;;;;;;7.18;4.32;;;;;;;;;;143728;605;47018;-54
2021/10/02 04:22:59;;;;;;;15.00;5.03;;;;;;;;;;143732;638;46031;-54
2021/10/02 04:25:26;;;;;;;9.23;4.32;;;;;;;;;;143730;642;45019;-54
2021/10/02 04:27:54;;;;;;;9.15;4.93;;;;;;;;;;143730;603;46010;-54
2021/10/02 04:30:21;;;;;;;10.93;4.50;;;;;;;;;;143728;639;47018;-54
2021/10/02 04:32:48;;;;;;;12.02;5.12;;;;;;;;;;143730;574;46013;-54
2021/10/02 04:35:15;;;;;;;10.30;4.20;;;;;;;;;;143731;614;45021;-54
2021/10/02 04:37:42;;;;;;;11.93;4.45;;;;;;;;;;143731;641;46010;-54
2021/10/02 04:40:10;;;;;;;7.43;4.70;;;;;;;;;;143725;660;47018;-54
2021/10/02 04:42:37;;;;;;;8.13;3.83;;;;;;;;;;143730;591;46012;-54
2021/10/02 04:45:04;;;;;;;10.00;5.47;;;;;;;;;;143729;608;45019;-55
2021/10/02 04:47:31;;;;;;;7.43;4.15;;;;;;;;;;143730;678;46010;-54
2021/10/02 04:49:58;;;;;;;8.07;4.32;;;;;;;;;;143728;636;47018;-55
2021/10/02 04:52:26;;;;;;;11.43;4.45;;;;;;;;;;143731;610;46013;-54
2021/10/02 04:54:53;;;;;;;7.65;4.30;;;;;;;;;;143731;592;45019;-55
2021/10/02 04:57:20;;;;;;;7.95;4.40;;;;;;;;;;143731;585;46022;-54
2021/10/02 04:59:47;;;;;;;8.15;4.43;;;;;;;;;;143727;567;47018;-54
2021/10/02 05:02:14;;;;;;;8.23;4.70;;;;;;;;;;143733;576;46012;-54
2021/10/02 05:04:41;;;;;;;5.72;3.92;;;;;;;;;;143728;605;45018;-54
2021/10/02 05:07:08;;;;;;;6.50;4.57;;;;;;;;;;143731;602;46010;-54
2021/10/02 05:09:36;;;;;;;8.75;3.90;;;;;;;;;;143730;688;46013;-55
2021/10/02 05:12:03;;;;;;;6.03;3.85;;;;;;;;;;143732;569;46012;-54
2021/10/02 05:14:30;;;;;;;8.05;4.10;;;;;;;;;;143729;575;45018;-54
2021/10/02 05:16:57;;;;;;;7.68;4.35;;;;;;;;;;143730;754;46019;-54
2021/10/02 05:19:24;;;;;;;8.52;4.10;;;;;;;;;;143730;581;47018;-54
2021/10/02 05:21:51;;;;;;;12.25;4.97;;;;;;;;;;143731;609;46012;-54
2021/10/02 05:24:18;;;;;;;9.00;4.22;;;;;;;;;;143730;609;45019;-54
2021/10/02 05:26:45;;;;;;;9.38;4.43;;;;;;;;;;143731;766;46010;-54
2021/10/02 05:29:12;;;;;;;7.37;4.35;;;;;;;;;;143728;629;47018;-54
2021/10/02 05:31:39;;;;;;;7.20;4.10;;;;;;;;;;143733;629;46013;-54
2021/10/02 05:34:06;;;;;;;8.20;3.87;;;;;;;;;;143731;668;45018;-54
2021/10/02 05:36:33;;;;;;;9.18;4.53;;;;;;;;;;143732;618;46010;-54
2021/10/02 05:39:00;;;;;;;9.68;4.50;;;;;;;;;;143726;564;47021;-54
2021/10/02 05:41:27;;;;;;;8.07;4.20;;;;;;;;;;143733;629;46012;-54
2021/10/02 05:43:54;;;;;;;8.10;4.10;;;;;;;;;;143731;627;45018;-54
2021/10/02 05:46:21;;;;;;;6.82;4.12;;;;;;;;;;143730;637;46010;-54
2021/10/02 05:48:48;;;;;;;12.82;5.30;;;;;;;;;;143727;628;47020;-54
2021/10/02 05:51:15;;;;;;;11.10;4.00;;;;;;;;;;143733;588;46012;-55
2021/10/02 05:53:42;;;;;;;7.12;4.20;;;;;;;;;;143728;575;45019;-54
2021/10/02 05:56:09;;;;;;;7.30;3.83;;;;;;;;;;143731;586;46022;-55
2021/10/02 05:58:36;;;;;;;7.93;4.10;;;;;;;;;;143727;569;47018;-54
2021/10/02 06:01:03;;;;;;;9.25;3.87;;;;;;;;;;143733;628;46013;-55
2021/10/02 06:03:30;;;;;;;8.32;3.90;;;;;;;;;;143729;566;45018;-55
2021/10/02 06:06:00;;;;;;;8.13;4.03;;;;;;;;;;143730;571;46010;-54
2021/10/02 06:08:27;;;;;;;11.90;3.95;;;;;;;;;;143730;596;46019;-54
2021/10/02 06:10:55;;;;;;;9.05;4.10;;;;;;;;;;143731;595;46012;-54
2021/10/02 06:13:23;;;;;;;10.82;4.50;;;;;;;;;;143729;690;45018;-54
2021/10/02 06:15:50;;;;;;;15.55;6.45;;;;;;;;;;143731;593;46022;-54
2021/10/02 06:18:17;;;;;;;11.80;6.55;;;;;;;;;;143730;569;47020;-54
2021/10/02 06:20:44;;;;;;;13.68;8.13;;;;;;;;;;143733;591;46012;-54
2021/10/02 06:23:11;;;;;;;22.00;11.45;;;;;;;;;;143728;697;45019;-54
2021/10/02 06:25:38;;;;;;;18.77;8.18;;;;;;;;;;143733;589;46022;-54
2021/10/02 06:28:06;;;;;;;33.22;19.50;;;;;;;;;;143734;569;47018;-54
2021/10/02 06:30:33;;;;;;;21.12;12.57;;;;;;;;;;143731;598;46013;-54
2021/10/02 06:33:00;;;;;;;32.95;21.08;;;;;;;;;;143730;589;45018;-54
2021/10/02 06:35:27;;;;;;;27.00;14.63;;;;;;;;;;143733;590;46010;-54
2021/10/02 06:37:55;;;;;;;21.65;11.25;;;;;;;;;;143729;746;47042;-54
2021/10/02 06:40:22;;;;;;;16.77;10.70;;;;;;;;;;143730;808;47012;-53
2021/10/02 06:42:49;;;;;;;20.05;10.02;;;;;;;;;;143730;741;45018;-54
2021/10/02 06:45:16;;;;;;;16.17;7.07;;;;;;;;;;143729;671;46011;-54
2021/10/02 06:47:42;;;;;;;13.93;6.32;;;;;;;;;;143729;564;46018;-54
2021/10/02 06:50:09;;;;;;;10.95;6.18;;;;;;;;;;143730;756;46028;-54
2021/10/02 06:52:36;;;;;;;14.40;6.25;;;;;;;;;;143728;583;45019;-54
2021/10/02 06:55:06;;;;;;;14.98;8.25;;;;;;;;;;143729;625;46010;-54
2021/10/02 06:57:33;;;;;;;11.70;5.87;;;;;;;;;;143727;636;47018;-54
2021/10/02 07:00:00;;;;;;;7.43;5.03;;;;;;;;;;143731;583;46012;-54
2021/10/02 07:02:27;;;;;;;13.55;7.05;;;;;;;;;;143726;580;45019;-54
2021/10/02 07:04:54;;;;;;;15.27;6.12;;;;;;;;;;143730;609;46010;-54
2021/10/02 07:07:21;;;;;;;11.40;5.10;;;;;;;;;;143729;622;47019;-54
2021/10/02 07:09:48;;;;;;;11.77;5.45;;;;;;;;;;143731;620;46024;-54
2021/10/02 07:12:15;;;;;;;9.82;5.55;;;;;;;;;;143728;566;45018;-54
2021/10/02 07:14:42;;;;;;;11.57;5.10;;;;;;;;;;143729;565;46022;-54
2021/10/02 07:17:10;;;;;;;8.13;5.50;;;;;;;;;;143727;582;47018;-54
2021/10/02 07:19:37;;;;;;;10.52;6.00;;;;;;;;;;143729;569;46012;-54
2021/10/02 07:22:05;;;;;;;7.25;4.60;;;;;;;;;;143726;639;45019;-54
2021/10/02 07:24:32;;;;;;;11.90;5.93;;;;;;;;;;143728;785;46010;-54
2021/10/02 07:26:59;;;;;;;10.82;5.57;;;;;;;;;;143728;753;46018;-54
2021/10/02 07:29:26;;;;;;;7.40;4.78;;;;;;;;;;143729;589;47013;-54
2021/10/02 07:31:53;;;;;;;9.35;4.82;;;;;;;;;;143727;658;46012;-54
2021/10/02 07:34:20;;;;;;;13.45;5.90;;;;;;;;;;143728;736;46022;-54
2021/10/02 07:36:47;;;;;;;7.22;4.93;;;;;;;;;;143728;608;47019;-54
2021/10/02 07:39:14;;;;;;;11.32;5.70;;;;;;;;;;143730;666;46012;-54
2021/10/02 07:41:44;;;;;;;14.07;5.20;;;;;;;;;;143727;629;45018;-54
2021/10/02 07:44:12;;;;;;;13.10;4.80;;;;;;;;;;143730;601;46023;-54
2021/10/02 07:46:48;;;;;;;8.90;5.35;;;;;;;;;;143725;588;47018;-55
2021/10/02 07:49:18;;;;;;;12.00;5.70;;;;;;;;;;143730;569;47012;-54
2021/10/02 07:51:46;;;;;;;8.82;5.00;;;;;;;;;;143726;626;45019;-54
2021/10/02 07:54:14;;;;;;;9.20;5.40;;;;;;;;;;143731;632;46010;-54
2021/10/02 07:56:42;;;;;;;11.82;5.12;;;;;;;;;;143732;631;46020;-56
2021/10/02 07:59:11;;;;;;;7.32;4.65;;;;;;;;;;143732;574;46013;-55
2021/10/02 08:01:38;;;;;;;11.18;5.50;;;;;;;;;;143728;616;45019;-55
2021/10/02 08:04:07;;;;;;;15.32;6.45;;;;;;;;;;143732;605;46022;-54
2021/10/02 08:06:36;;;;;;;9.63;5.30;;;;;;;;;;143726;611;47019;-55
2021/10/02 08:09:04;;;;;;;10.30;5.35;;;;;;;;;;143729;647;46028;-55
2021/10/02 08:11:32;;;;;;;9.18;5.53;;;;;;;;;;143728;617;45018;-55
2021/10/02 08:13:59;;;;;;;12.00;5.82;;;;;;;;;;143731;690;46022;-53
2021/10/02 08:16:31;;;;;;;8.85;6.22;;;;;;;;;;143730;564;47018;-54
2021/10/02 08:19:00;;;;;;;8.30;5.50;;;;;;;;;;143727;571;47012;-55
2021/10/02 08:21:28;;;;;;;17.40;5.47;;;;;;;;;;143728;598;45019;-55
2021/10/02 08:23:56;;;;;;;10.00;5.55;;;;;;;;;;143731;588;46027;-55
2021/10/02 08:26:25;;;;;;;12.23;6.25;;;;;;;;;;143725;579;47018;-54
2021/10/02 08:28:53;;;;;;;9.45;5.37;;;;;;;;;;143732;603;46012;-53
2021/10/02 08:31:22;;;;;;;8.40;6.25;;;;;;;;;;143726;581;45912;-54
2021/10/02 08:33:50;;;;;;;12.55;5.68;;;;;;;;;;143730;569;46010;-53
2021/10/02 08:36:17;;;;;;;10.35;5.57;;;;;;;;;;143724;736;48019;-54
2021/10/02 08:38:44;;;;;;;7.75;4.70;;;;;;;;;;143731;588;47013;-55
2021/10/02 08:41:15;;;;;;;9.25;5.43;;;;;;;;;;143728;686;45034;-55
2021/10/02 08:43:46;;;;;;;17.42;5.35;;;;;;;;;;143733;565;46022;-54
2021/10/02 08:46:14;;;;;;;8.77;4.57;;;;;;;;;;143725;564;47018;-54
2021/10/02 08:48:42;;;;;;;11.88;5.10;;;;;;;;;;143728;591;46012;-54
2021/10/02 08:51:10;;;;;;;12.48;4.30;;;;;;;;;;143726;621;45019;-52
2021/10/02 08:53:38;;;;;;;11.63;6.05;;;;;;;;;;143728;573;46010;-54
2021/10/02 08:56:05;;;;;;;8.57;5.10;;;;;;;;;;143731;593;47018;-54
2021/10/02 08:58:33;;;;;;;11.43;5.65;;;;;;;;;;143727;688;46032;-54
2021/10/02 09:01:00;;;;;;;10.73;4.85;;;;;;;;;;143727;661;45018;-54
2021/10/02 09:03:27;;;;;;;8.77;5.25;;;;;;;;;;143729;566;46010;-55
2021/10/02 09:05:54;;;;;;;6.43;4.57;;;;;;;;;;143725;673;47020;-55
2021/10/02 09:08:21;;;;;;;8.63;5.50;;;;;;;;;;143728;610;46012;-54
2021/10/02 09:10:48;;;;;;;12.98;5.70;;;;;;;;;;143726;571;45021;-55
2021/10/02 09:13:15;;;;;;;9.75;5.20;;;;;;;;;;143729;629;46011;-55
2021/10/02 09:15:42;;;;;;;9.82;4.93;;;;;;;;;;143725;605;47021;-55
2021/10/02 09:18:09;;;;;;;10.63;5.37;;;;;;;;;;143727;610;46012;-55
2021/10/02 09:20:38;;;;;;;8.98;5.00;;;;;;;;;;143728;582;45019;-54
2021/10/02 09:23:10;;;;;;;10.18;5.18;;;;;;;;;;143728;606;46010;-54
2021/10/02 09:25:45;;;;;;;9.82;5.22;;;;;;;;;;143725;569;47020;-55
2021/10/02 09:28:15;;;;;;;7.50;5.55;;;;;;;;;;143726;591;46013;-55
2021/10/02 09:30:45;;;;;;;12.50;5.37;;;;;;;;;;143727;598;45019;-54
2021/10/02 09:33:20;;;;;;;11.48;4.57;;;;;;;;;;143729;566;47010;-54
2021/10/02 09:35:50;;;;;;;10.60;5.80;;;;;;;;;;143727;569;47019;-55
2021/10/02 09:38:19;;;;;;;13.43;6.12;;;;;;;;;;143753;601;45921;-55
2021/10/02 09:40:55;;;;;;;10.93;5.85;;;;;;;;;;143753;603;45012;-55
2021/10/02 09:43:24;;;;;;;9.38;5.10;;;;;;;;;;143758;618;45011;-54
2021/10/02 09:45:52;;;;;;;8.50;5.10;;;;;;;;;;143753;596;46020;-54
2021/10/02 09:48:32;;;;;;;9.65;5.80;;;;;;;;;;143754;610;46012;-54
2021/10/02 09:51:05;;;;;;;9.05;5.53;;;;;;;;;;143747;583;46019;-54
2021/10/02 09:53:41;;;;;;;8.70;5.00;;;;;;;;;;143758;619;45022;-55
2021/10/02 09:56:12;;;;;;;8.15;4.95;;;;;;;;;;143756;630;46018;-55
2021/10/02 09:58:41;;;;;;;8.55;5.80;;;;;;;;;;143754;597;45921;-54
2021/10/02 10:01:22;;;;;;;7.18;5.10;;;;;;;;;;143755;625;44912;-55
2021/10/02 10:03:50;;;;;;;7.22;5.00;;;;;;;;;;143756;620;45018;-54
2021/10/02 10:06:22;;;;;;;8.02;5.75;;;;;;;;;;143751;613;46018;-54
2021/10/02 10:09:06;;;;;;;10.02;6.32;;;;;;;;;;143753;612;46012;-54
2021/10/02 10:11:54;;;;;;;12.52;5.93;;;;;;;;;;143755;579;44912;-54
2021/10/02 10:14:26;;;;;;;8.85;5.28;;;;;;;;;;143758;583;45010;-54
2021/10/02 10:16:55;;;;;;;11.98;6.00;;;;;;;;;;143747;571;46018;-55
2021/10/02 10:19:29;;;;;;;9.68;5.35;;;;;;;;;;143753;578;46013;-55
2021/10/02 10:22:16;;;;;;;8.50;5.55;;;;;;;;;;143755;592;45012;-54
2021/10/02 10:24:56;;;;;;;8.93;6.03;;;;;;;;;;143758;580;45022;-55
2021/10/02 10:27:46;;;;;;;10.10;6.20;;;;;;;;;;143753;578;46020;-54
2021/10/02 10:30:24;;;;;;;13.57;6.37;;;;;;;;;;143751;565;46012;-55
2021/10/02 10:33:09;;;;;;;11.45;5.60;;;;;;;;;;143755;627;44912;-54
2021/10/02 10:35:41;;;;;;;12.10;5.25;;;;;;;;;;143757;610;45011;-54
2021/10/02 10:38:10;;;;;;;8.00;5.43;;;;;;;;;;143728;637;47018;-55
2021/10/02 10:40:37;;;;;;;10.23;5.45;;;;;;;;;;143728;593;46012;-54
2021/10/02 10:43:05;;;;;;;8.00;5.80;;;;;;;;;;143727;583;45019;-55
2021/10/02 10:45:34;;;;;;;9.15;5.50;;;;;;;;;;143728;576;46022;-54
2021/10/02 10:48:02;;;;;;;7.43;5.35;;;;;;;;;;143728;599;47018;-54
2021/10/02 10:50:30;;;;;;;9.25;6.15;;;;;;;;;;143732;638;46013;-54
2021/10/02 10:53:01;;;;;;;12.18;6.15;;;;;;;;;;143726;595;45018;-54
2021/10/02 10:55:28;;;;;;;11.27;6.32;;;;;;;;;;143728;577;46010;-53
2021/10/02 10:57:58;;;;;;;10.48;6.12;;;;;;;;;;143725;564;47019;-54
2021/10/02 11:00:51;;;;;;;14.63;6.50;;;;;;;;;;143728;602;46012;-54
2021/10/02 11:03:44;;;;;;;8.13;5.28;;;;;;;;;;143725;569;45021;-54
2021/10/02 11:06:19;;;;;;;14.70;6.60;;;;;;;;;;143729;612;46023;-54
2021/10/02 11:09:37;;;;;;;13.27;6.85;;;;;;;;;;143725;592;47018;-55
2021/10/02 11:12:06;;;;;;;9.98;6.37;;;;;;;;;;143726;614;47012;-55
2021/10/02 11:15:07;;;;;;;9.77;5.80;;;;;;;;;;143726;587;45021;-54
2021/10/02 11:17:41;;;;;;;9.20;6.30;;;;;;;;;;143729;605;46010;-54
2021/10/02 11:20:29;;;;;;;9.57;6.20;;;;;;;;;;143725;603;47019;-54
2021/10/02 11:24:00;;;;;;;14.82;6.75;;;;;;;;;;143726;624;46012;-53
2021/10/02 11:26:37;;;;;;;9.95;6.70;;;;;;;;;;143727;576;45022;-54
2021/10/02 11:29:27;;;;;;;13.98;6.30;;;;;;;;;;143728;593;46012;-54
2021/10/02 11:32:30;;;;;;;13.52;6.57;;;;;;;;;;143725;564;47022;-54
2021/10/02 11:35:30;;;;;;;7.50;5.70;;;;;;;;;;143726;581;46013;-54
2021/10/02 11:38:07;;;;;;;7.72;5.78;;;;;;;;;;143727;633;45020;-54
2021/10/02 11:40:52;;;;;;;9.15;6.05;;;;;;;;;;143729;628;46010;-54
2021/10/02 11:43:23;;;;;;;9.65;6.18;;;;;;;;;;143726;610;47018;-54
2021/10/02 11:45:59;;;;;;;11.32;6.70;;;;;;;;;;143728;582;46012;-54
2021/10/02 11:48:43;;;;;;;11.68;6.28;;;;;;;;;;143727;719;45018;-54
2021/10/02 11:51:27;;;;;;;11.57;6.47;;;;;;;;;;143729;575;46010;-53
2021/10/02 11:54:10;;;;;;;11.43;7.07;;;;;;;;;;143724;571;47020;-54
2021/10/02 11:56:39;;;;;;;9.95;6.30;;;;;;;;;;143728;614;46013;-54
2021/10/02 11:59:07;;;;;;;14.65;7.43;;;;;;;;;;143725;617;45019;-54
2021/10/02 12:01:42;;;;;;;11.07;6.85;;;;;;;;;;143728;633;46010;-55
2021/10/02 12:04:15;;;;;;;11.82;7.50;;;;;;;;;;143726;582;47020;-54
2021/10/02 12:06:47;;;;;;;11.18;5.93;;;;;;;;;;143725;604;47012;-54
2021/10/02 12:09:16;;;;;;;10.50;6.07;;;;;;;;;;143727;619;45018;-54
2021/10/02 12:11:49;;;;;;;8.93;5.80;;;;;;;;;;143729;586;46010;-54
2021/10/02 12:14:21;;;;;;;12.77;7.12;;;;;;;;;;143725;584;47021;-54
2021/10/02 12:17:08;;;;;;;9.00;5.85;;;;;;;;;;143726;564;46012;-53
2021/10/02 12:19:35;;;;;;;12.37;6.57;;;;;;;;;;143726;575;45019;-54
2021/10/02 12:22:05;;;;;;;11.70;6.75;;;;;;;;;;143730;587;46010;-54
2021/10/02 12:24:38;;;;;;;14.38;7.18;;;;;;;;;;143726;614;47018;-54
2021/10/02 12:27:16;;;;;;;11.07;6.90;;;;;;;;;;143727;573;46013;-54
2021/10/02 12:29:47;;;;;;;13.73;7.55;;;;;;;;;;143727;564;45018;-54
2021/10/02 12:32:19;;;;;;;13.52;6.60;;;;;;;;;;143728;625;46021;-54
2021/10/02 12:34:48;;;;;;;11.88;6.97;;;;;;;;;;143726;573;47018;-54
2021/10/02 12:37:18;;;;;;;9.73;7.03;;;;;;;;;;143725;576;46022;-54
2021/10/02 12:39:53;;;;;;;9.75;6.32;;;;;;;;;;143728;592;45018;-53
2021/10/02 12:42:33;;;;;;;9.13;6.32;;;;;;;;;;143729;629;46023;-54
2021/10/02 12:45:02;;;;;;;10.60;7.10;;;;;;;;;;143727;575;46058;-54
2021/10/02 12:47:29;;;;;;;9.63;6.97;;;;;;;;;;143727;598;46012;-54
2021/10/02 12:50:01;;;;;;;11.07;6.57;;;;;;;;;;143729;613;45021;-55
2021/10/02 12:52:29;;;;;;;9.98;6.57;;;;;;;;;;143730;586;46022;-55
2021/10/02 12:54:58;;;;;;;9.85;7.20;;;;;;;;;;143727;583;47020;-54
2021/10/02 12:57:32;;;;;;;10.40;6.40;;;;;;;;;;143727;608;46012;-54
2021/10/02 13:00:05;;;;;;;13.18;6.50;;;;;;;;;;143728;592;45021;-54
2021/10/02 13:02:34;;;;;;;9.07;6.68;;;;;;;;;;143730;584;46010;-54
2021/10/02 13:05:01;;;;;;;14.52;7.62;;;;;;;;;;143726;721;47019;-54
2021/10/02 13:07:36;;;;;;;13.13;7.65;;;;;;;;;;143727;616;46012;-54
2021/10/02 13:10:12;;;;;;;7.70;6.00;;;;;;;;;;143727;577;45018;-54
2021/10/02 13:12:52;;;;;;;9.50;6.05;;;;;;;;;;143730;695;46010;-54
2021/10/02 13:15:25;;;;;;;11.10;6.25;;;;;;;;;;143726;599;47018;-54
2021/10/02 13:18:01;;;;;;;12.13;7.00;;;;;;;;;;143728;566;46012;-54
2021/10/02 13:20:29;;;;;;;9.30;6.65;;;;;;;;;;143728;617;45019;-54
2021/10/02 13:22:56;;;;;;;11.57;7.15;;;;;;;;;;143728;639;47010;-54
2021/10/02 13:25:29;;;;;;;11.95;6.57;;;;;;;;;;143727;566;46018;-55
2021/10/02 13:27:58;;;;;;;11.65;6.90;;;;;;;;;;143723;573;47012;-54
2021/10/02 13:30:35;;;;;;;8.32;6.57;;;;;;;;;;143727;642;45018;-54
2021/10/02 13:33:05;;;;;;;8.30;6.60;;;;;;;;;;143730;617;46010;-54
2021/10/02 13:35:38;;;;;;;9.60;6.78;;;;;;;;;;143728;652;46044;-54
2021/10/02 13:38:07;;;;;;;11.65;7.70;;;;;;;;;;143727;577;46012;-54
2021/10/02 13:40:37;;;;;;;13.98;6.90;;;;;;;;;;143728;618;45019;-54
2021/10/02 13:43:09;;;;;;;9.50;7.07;;;;;;;;;;143729;567;46012;-54
2021/10/02 13:45:39;;;;;;;12.90;6.87;;;;;;;;;;143728;569;47018;-54
2021/10/02 13:48:12;;;;;;;9.00;7.12;;;;;;;;;;143727;617;46013;-54
2021/10/02 13:50:44;;;;;;;15.13;6.40;;;;;;;;;;143728;579;46012;-54
2021/10/02 13:53:12;;;;;;;13.32;7.90;;;;;;;;;;143730;569;46010;-54
2021/10/02 13:55:40;;;;;;;10.05;7.18;;;;;;;;;;143727;569;47020;-54
2021/10/02 13:58:08;;;;;;;11.12;7.20;;;;;;;;;;143726;588;46012;-54
2021/10/02 14:00:36;;;;;;;8.80;6.60;;;;;;;;;;143728;571;45018;-54
2021/10/02 14:03:04;;;;;;;9.77;6.80;;;;;;;;;;143729;605;46018;-54
2021/10/02 14:05:31;;;;;;;10.32;6.95;;;;;;;;;;143726;574;47021;-54
2021/10/02 14:07:59;;;;;;;10.82;6.68;;;;;;;;;;143726;595;46012;-54
2021/10/02 14:10:28;;;;;;;12.00;7.55;;;;;;;;;;143726;585;45018;-54
2021/10/02 14:12:55;;;;;;;12.43;7.53;;;;;;;;;;143730;620;46023;-54
2021/10/02 14:15:22;;;;;;;9.00;7.00;;;;;;;;;;143725;719;47020;-54
2021/10/02 14:17:49;;;;;;;13.82;7.47;;;;;;;;;;143727;610;46012;-54
2021/10/02 14:20:16;;;;;;;8.68;6.85;;;;;;;;;;143727;585;46018;-54
2021/10/02 14:22:43;;;;;;;14.32;7.97;;;;;;;;;;143730;597;46010;-54
2021/10/02 14:25:14;;;;;;;8.07;6.72;;;;;;;;;;143725;570;47019;-54
2021/10/02 14:27:41;;;;;;;12.32;7.32;;;;;;;;;;143727;611;47022;-54
2021/10/02 14:30:10;;;;;;;11.52;7.05;;;;;;;;;;143726;604;45018;-54
2021/10/02 14:32:37;;;;;;;12.85;7.25;;;;;;;;;;143730;571;46022;-54
2021/10/02 14:35:04;;;;;;;12.27;6.97;;;;;;;;;;143728;580;47018;-54
2021/10/02 14:37:31;;;;;;;11.77;8.45;;;;;;;;;;143730;593;46012;-54
2021/10/02 14:39:58;;;;;;;9.02;7.07;;;;;;;;;;143729;638;45019;-54
2021/10/02 14:42:26;;;;;;;10.18;6.85;;;;;;;;;;143731;621;46010;-54
2021/10/02 14:44:53;;;;;;;10.05;7.32;;;;;;;;;;143727;588;47018;-54
2021/10/02 14:47:21;;;;;;;9.73;6.95;;;;;;;;;;143728;592;46013;-54
2021/10/02 14:49:48;;;;;;;8.23;6.97;;;;;;;;;;143729;607;45019;-54
2021/10/02 14:52:18;;;;;;;14.80;7.65;;;;;;;;;;143731;626;46010;-54
2021/10/02 14:54:45;;;;;;;9.73;7.82;;;;;;;;;;143729;572;47019;-54
2021/10/02 14:57:14;;;;;;;12.73;8.00;;;;;;;;;;143729;606;46012;-53
2021/10/02 14:59:43;;;;;;;15.23;7.03;;;;;;;;;;143728;594;45018;-54
2021/10/02 15:02:15;;;;;;;11.07;7.87;;;;;;;;;;143731;570;46022;-54
2021/10/02 15:04:43;;;;;;;16.85;7.85;;;;;;;;;;143729;570;47018;-53
2021/10/02 15:07:12;;;;;;;10.75;6.78;;;;;;;;;;143733;619;46012;-54
2021/10/02 15:09:40;;;;;;;11.30;7.60;;;;;;;;;;143727;570;45018;-53
2021/10/02 15:12:07;;;;;;;11.82;7.20;;;;;;;;;;143728;601;47010;-53
2021/10/02 15:14:34;;;;;;;10.07;7.87;;;;;;;;;;143727;600;47018;-53
2021/10/02 15:17:01;;;;;;;10.50;7.82;;;;;;;;;;143731;618;46032;-53
2021/10/02 15:19:28;;;;;;;9.65;7.80;;;;;;;;;;143728;610;45019;-54
2021/10/02 15:22:03;;;;;;;11.75;8.13;;;;;;;;;;143731;648;46010;-54
2021/10/02 15:24:39;;;;;;;14.80;8.07;;;;;;;;;;143729;597;47019;-53
2021/10/02 15:27:12;;;;;;;9.65;7.22;;;;;;;;;;143732;863;46012;-54
2021/10/02 15:29:43;;;;;;;10.73;7.40;;;;;;;;;;143730;564;45018;-53
2021/10/02 15:32:12;;;;;;;9.90;7.25;;;;;;;;;;143730;605;46022;-54
2021/10/02 15:34:42;;;;;;;9.82;7.70;;;;;;;;;;143728;601;47018;-53
2021/10/02 15:37:10;;;;;;;10.52;7.15;;;;;;;;;;143732;793;46012;-54
2021/10/02 15:39:38;;;;;;;11.35;7.30;;;;;;;;;;143728;569;45019;-53
2021/10/02 15:42:07;;;;;;;10.85;7.45;;;;;;;;;;143731;596;46010;-54
2021/10/02 15:44:35;;;;;;;10.73;7.32;;;;;;;;;;143727;581;47018;-53
2021/10/02 15:47:05;;;;;;;8.95;7.10;;;;;;;;;;143728;616;46033;-53